sensor_id;sensor_type;location;lat;lon;timestamp;P1;durP1;ratioP1;P2;durP2;ratioP2
974;SDS011;6115;49.296;10.602;2022-09-12T00:03:00;13.37;;;10.60;;
974;SDS011;6115;49.296;10.602;2022-09-12T00:08:01;19.80;;;12.30;;
974;SDS011;6115;49.296;10.602;2022-09-12T00:13:01;14.70;;;11.20;;
974;SDS011;6115;49.296;10.602;2022-09-12T00:18:02;15.50;;;11.50;;
974;SDS011;6115;49.296;10.602;2022-09-12T00:23:03;17.37;;;11.10;;
974;SDS011;6115;49.296;10.602;2022-09-12T00:28:03;16.53;;;11.17;;
974;SDS011;6115;49.296;10.602;2022-09-12T00:33:04;14.13;;;10.47;;
974;SDS011;6115;49.296;10.602;2022-09-12T00:38:04;14.00;;;9.70;;
974;SDS011;6115;49.296;10.602;2022-09-12T00:43:05;16.03;;;10.50;;
974;SDS011;6115;49.296;10.602;2022-09-12T00:48:53;15.20;;;10.47;;
974;SDS011;6115;49.296;10.602;2022-09-12T00:53:53;15.10;;;10.30;;
974;SDS011;6115;49.296;10.602;2022-09-12T00:58:57;15.17;;;10.27;;
974;SDS011;6115;49.296;10.602;2022-09-12T01:04:04;17.97;;;10.93;;
974;SDS011;6115;49.296;10.602;2022-09-12T01:09:04;28.37;;;10.83;;
974;SDS011;6115;49.296;10.602;2022-09-12T01:14:06;19.03;;;11.30;;
974;SDS011;6115;49.296;10.602;2022-09-12T01:34:44;19.13;;;12.57;;
974;SDS011;6115;49.296;10.602;2022-09-12T01:50:32;17.30;;;11.17;;
974;SDS011;6115;49.296;10.602;2022-09-12T01:55:48;17.73;;;10.70;;
974;SDS011;6115;49.296;10.602;2022-09-12T02:06:26;64.37;;;12.83;;
974;SDS011;6115;49.296;10.602;2022-09-12T02:12:04;86.33;;;12.70;;
974;SDS011;6115;49.296;10.602;2022-09-12T02:17:28;15.83;;;9.97;;
974;SDS011;6115;49.296;10.602;2022-09-12T02:22:29;23.80;;;10.30;;
974;SDS011;6115;49.296;10.602;2022-09-12T02:32:37;19.17;;;10.27;;
974;SDS011;6115;49.296;10.602;2022-09-12T02:42:53;15.97;;;11.07;;
974;SDS011;6115;49.296;10.602;2022-09-12T02:52:58;15.80;;;11.33;;
974;SDS011;6115;49.296;10.602;2022-09-12T02:58:05;16.27;;;10.53;;
974;SDS011;6115;49.296;10.602;2022-09-12T03:19:20;23.77;;;10.90;;
974;SDS011;6115;49.296;10.602;2022-09-12T03:24:32;17.63;;;11.90;;
974;SDS011;6115;49.296;10.602;2022-09-12T03:29:37;36.83;;;11.77;;
974;SDS011;6115;49.296;10.602;2022-09-12T03:34:40;30.43;;;10.73;;
974;SDS011;6115;49.296;10.602;2022-09-12T03:39:40;21.33;;;11.20;;
974;SDS011;6115;49.296;10.602;2022-09-12T03:44:41;16.67;;;10.20;;
974;SDS011;6115;49.296;10.602;2022-09-12T03:49:41;14.63;;;11.17;;
974;SDS011;6115;49.296;10.602;2022-09-12T03:54:42;17.23;;;10.80;;
974;SDS011;6115;49.296;10.602;2022-09-12T03:59:42;12.93;;;9.50;;
974;SDS011;6115;49.296;10.602;2022-09-12T04:04:43;12.87;;;9.93;;
974;SDS011;6115;49.296;10.602;2022-09-12T04:09:45;14.07;;;10.17;;
974;SDS011;6115;49.296;10.602;2022-09-12T04:14:45;11.50;;;9.57;;
974;SDS011;6115;49.296;10.602;2022-09-12T04:19:46;11.40;;;8.80;;
974;SDS011;6115;49.296;10.602;2022-09-12T04:24:47;13.00;;;9.40;;
974;SDS011;6115;49.296;10.602;2022-09-12T04:29:47;11.30;;;9.17;;
974;SDS011;6115;49.296;10.602;2022-09-12T04:34:48;10.27;;;8.50;;
974;SDS011;6115;49.296;10.602;2022-09-12T04:39:49;16.90;;;9.93;;
974;SDS011;6115;49.296;10.602;2022-09-12T04:44:50;18.40;;;10.10;;
974;SDS011;6115;49.296;10.602;2022-09-12T04:49:51;16.73;;;10.37;;
974;SDS011;6115;49.296;10.602;2022-09-12T04:54:51;12.07;;;9.30;;
974;SDS011;6115;49.296;10.602;2022-09-12T04:59:52;15.33;;;11.17;;
974;SDS011;6115;49.296;10.602;2022-09-12T05:04:52;27.17;;;13.23;;
974;SDS011;6115;49.296;10.602;2022-09-12T05:09:53;25.30;;;11.00;;
974;SDS011;6115;49.296;10.602;2022-09-12T05:14:54;15.77;;;10.63;;
974;SDS011;6115;49.296;10.602;2022-09-12T05:19:54;16.03;;;10.97;;
974;SDS011;6115;49.296;10.602;2022-09-12T05:24:55;21.20;;;10.40;;
974;SDS011;6115;49.296;10.602;2022-09-12T05:29:55;16.10;;;11.00;;
974;SDS011;6115;49.296;10.602;2022-09-12T05:34:56;22.07;;;13.00;;
974;SDS011;6115;49.296;10.602;2022-09-12T05:39:56;19.30;;;11.70;;
974;SDS011;6115;49.296;10.602;2022-09-12T05:44:58;19.60;;;12.13;;
974;SDS011;6115;49.296;10.602;2022-09-12T05:49:58;20.77;;;13.20;;
974;SDS011;6115;49.296;10.602;2022-09-12T05:54:59;27.13;;;12.87;;
974;SDS011;6115;49.296;10.602;2022-09-12T05:59:59;20.50;;;12.40;;
974;SDS011;6115;49.296;10.602;2022-09-12T06:05:00;17.60;;;12.10;;
974;SDS011;6115;49.296;10.602;2022-09-12T06:10:01;24.03;;;13.00;;
974;SDS011;6115;49.296;10.602;2022-09-12T06:15:02;21.77;;;13.43;;
974;SDS011;6115;49.296;10.602;2022-09-12T06:20:03;20.00;;;13.23;;
974;SDS011;6115;49.296;10.602;2022-09-12T06:25:04;20.60;;;13.10;;
974;SDS011;6115;49.296;10.602;2022-09-12T06:30:05;21.50;;;13.63;;
974;SDS011;6115;49.296;10.602;2022-09-12T06:35:06;21.03;;;14.00;;
974;SDS011;6115;49.296;10.602;2022-09-12T06:40:07;26.40;;;17.23;;
974;SDS011;6115;49.296;10.602;2022-09-12T06:45:09;29.50;;;17.80;;
974;SDS011;6115;49.296;10.602;2022-09-12T06:50:10;30.70;;;19.30;;
974;SDS011;6115;49.296;10.602;2022-09-12T06:55:11;34.40;;;19.80;;
974;SDS011;6115;49.296;10.602;2022-09-12T07:00:11;23.23;;;17.13;;
974;SDS011;6115;49.296;10.602;2022-09-12T07:05:13;23.80;;;17.37;;
974;SDS011;6115;49.296;10.602;2022-09-12T07:10:14;26.20;;;19.00;;
974;SDS011;6115;49.296;10.602;2022-09-12T07:15:14;25.40;;;17.73;;
974;SDS011;6115;49.296;10.602;2022-09-12T07:20:15;26.57;;;20.43;;
974;SDS011;6115;49.296;10.602;2022-09-12T07:25:16;27.00;;;19.53;;
974;SDS011;6115;49.296;10.602;2022-09-12T07:30:16;26.67;;;18.43;;
974;SDS011;6115;49.296;10.602;2022-09-12T07:35:17;22.70;;;16.20;;
974;SDS011;6115;49.296;10.602;2022-09-12T07:40:17;24.30;;;17.80;;
974;SDS011;6115;49.296;10.602;2022-09-12T07:45:18;20.40;;;16.63;;
974;SDS011;6115;49.296;10.602;2022-09-12T07:50:18;19.97;;;16.87;;
974;SDS011;6115;49.296;10.602;2022-09-12T07:55:20;22.83;;;17.77;;
974;SDS011;6115;49.296;10.602;2022-09-12T08:00:20;18.80;;;16.80;;
974;SDS011;6115;49.296;10.602;2022-09-12T08:05:21;17.43;;;15.60;;
974;SDS011;6115;49.296;10.602;2022-09-12T08:10:22;16.50;;;14.80;;
974;SDS011;6115;49.296;10.602;2022-09-12T08:15:22;20.37;;;15.63;;
974;SDS011;6115;49.296;10.602;2022-09-12T08:20:23;19.93;;;14.97;;
974;SDS011;6115;49.296;10.602;2022-09-12T08:25:24;21.87;;;14.03;;
974;SDS011;6115;49.296;10.602;2022-09-12T08:30:25;16.37;;;14.63;;
974;SDS011;6115;49.296;10.602;2022-09-12T08:35:26;17.63;;;15.60;;
974;SDS011;6115;49.296;10.602;2022-09-12T08:40:26;13.60;;;12.37;;
974;SDS011;6115;49.296;10.602;2022-09-12T08:45:35;14.10;;;12.70;;
974;SDS011;6115;49.296;10.602;2022-09-12T08:50:46;13.43;;;12.13;;
974;SDS011;6115;49.296;10.602;2022-09-12T08:55:56;12.27;;;11.20;;
974;SDS011;6115;49.296;10.602;2022-09-12T09:17:33;10.60;;;9.60;;
974;SDS011;6115;49.296;10.602;2022-09-12T09:22:45;10.13;;;9.20;;
974;SDS011;6115;49.296;10.602;2022-09-12T09:28:14;10.10;;;8.93;;
974;SDS011;6115;49.296;10.602;2022-09-12T09:33:23;11.07;;;10.07;;
974;SDS011;6115;49.296;10.602;2022-09-12T09:38:42;10.00;;;9.10;;
974;SDS011;6115;49.296;10.602;2022-09-12T09:43:49;9.37;;;8.57;;
974;SDS011;6115;49.296;10.602;2022-09-12T09:48:50;8.97;;;8.17;;
974;SDS011;6115;49.296;10.602;2022-09-12T09:54:54;8.30;;;7.47;;
974;SDS011;6115;49.296;10.602;2022-09-12T09:59:39;7.53;;;6.93;;
974;SDS011;6115;49.296;10.602;2022-09-12T10:04:40;8.97;;;8.10;;
974;SDS011;6115;49.296;10.602;2022-09-12T10:15:17;7.53;;;6.83;;
974;SDS011;6115;49.296;10.602;2022-09-12T10:20:30;6.30;;;5.77;;
974;SDS011;6115;49.296;10.602;2022-09-12T10:25:33;6.90;;;6.30;;
974;SDS011;6115;49.296;10.602;2022-09-12T10:30:34;6.30;;;5.67;;
974;SDS011;6115;49.296;10.602;2022-09-12T10:35:42;7.23;;;6.50;;
974;SDS011;6115;49.296;10.602;2022-09-12T10:40:54;6.37;;;5.87;;
974;SDS011;6115;49.296;10.602;2022-09-12T10:56:25;6.43;;;5.53;;
974;SDS011;6115;49.296;10.602;2022-09-12T11:01:40;6.20;;;5.70;;
974;SDS011;6115;49.296;10.602;2022-09-12T11:07:09;6.23;;;5.73;;
974;SDS011;6115;49.296;10.602;2022-09-12T11:12:28;6.37;;;5.87;;
974;SDS011;6115;49.296;10.602;2022-09-12T11:17:41;9.03;;;6.13;;
974;SDS011;6115;49.296;10.602;2022-09-12T11:38:38;8.60;;;4.97;;
974;SDS011;6115;49.296;10.602;2022-09-12T11:43:46;5.40;;;4.90;;
974;SDS011;6115;49.296;10.602;2022-09-12T11:59:42;5.30;;;4.90;;
974;SDS011;6115;49.296;10.602;2022-09-12T12:10:34;4.80;;;4.10;;
974;SDS011;6115;49.296;10.602;2022-09-12T12:15:50;4.63;;;4.33;;
974;SDS011;6115;49.296;10.602;2022-09-12T12:21:19;4.70;;;4.40;;
974;SDS011;6115;49.296;10.602;2022-09-12T12:36:59;4.00;;;3.70;;
974;SDS011;6115;49.296;10.602;2022-09-12T12:52:45;4.23;;;3.93;;
974;SDS011;6115;49.296;10.602;2022-09-12T12:57:50;4.57;;;4.17;;
974;SDS011;6115;49.296;10.602;2022-09-12T13:08:07;6.43;;;4.30;;
974;SDS011;6115;49.296;10.602;2022-09-12T13:13:30;4.23;;;3.93;;
974;SDS011;6115;49.296;10.602;2022-09-12T13:18:47;4.03;;;3.67;;
974;SDS011;6115;49.296;10.602;2022-09-12T13:23:58;4.27;;;3.80;;
974;SDS011;6115;49.296;10.602;2022-09-12T13:29:08;4.17;;;3.83;;
974;SDS011;6115;49.296;10.602;2022-09-12T13:34:19;4.67;;;3.93;;
974;SDS011;6115;49.296;10.602;2022-09-12T13:39:33;5.07;;;4.57;;
974;SDS011;6115;49.296;10.602;2022-09-12T13:45:03;4.37;;;3.97;;
974;SDS011;6115;49.296;10.602;2022-09-12T13:50:16;2.80;;;2.60;;
974;SDS011;6115;49.296;10.602;2022-09-12T13:55:30;4.30;;;3.00;;
974;SDS011;6115;49.296;10.602;2022-09-12T14:00:33;3.93;;;3.00;;
974;SDS011;6115;49.296;10.602;2022-09-12T14:05:34;3.13;;;2.93;;
974;SDS011;6115;49.296;10.602;2022-09-12T14:10:39;3.50;;;2.80;;
974;SDS011;6115;49.296;10.602;2022-09-12T14:15:43;3.53;;;3.33;;
974;SDS011;6115;49.296;10.602;2022-09-12T14:20:45;2.97;;;2.67;;
974;SDS011;6115;49.296;10.602;2022-09-12T14:25:46;3.90;;;2.60;;
974;SDS011;6115;49.296;10.602;2022-09-12T14:31:05;2.80;;;2.60;;
974;SDS011;6115;49.296;10.602;2022-09-12T14:41:32;3.20;;;2.77;;
974;SDS011;6115;49.296;10.602;2022-09-12T14:46:37;2.77;;;2.57;;
974;SDS011;6115;49.296;10.602;2022-09-12T14:51:40;3.30;;;3.00;;
974;SDS011;6115;49.296;10.602;2022-09-12T14:57:00;3.47;;;3.20;;
974;SDS011;6115;49.296;10.602;2022-09-12T15:02:19;3.10;;;2.90;;
974;SDS011;6115;49.296;10.602;2022-09-12T15:12:34;3.47;;;3.17;;
974;SDS011;6115;49.296;10.602;2022-09-12T15:17:35;3.70;;;3.33;;
974;SDS011;6115;49.296;10.602;2022-09-12T15:22:36;3.47;;;3.13;;
974;SDS011;6115;49.296;10.602;2022-09-12T15:27:38;3.10;;;2.90;;
974;SDS011;6115;49.296;10.602;2022-09-12T15:32:40;2.70;;;2.50;;
974;SDS011;6115;49.296;10.602;2022-09-12T15:37:43;3.27;;;3.07;;
974;SDS011;6115;49.296;10.602;2022-09-12T15:42:44;2.90;;;2.70;;
974;SDS011;6115;49.296;10.602;2022-09-12T15:47:44;2.87;;;2.67;;
974;SDS011;6115;49.296;10.602;2022-09-12T15:52:45;2.93;;;2.73;;
974;SDS011;6115;49.296;10.602;2022-09-12T15:57:46;3.63;;;2.90;;
974;SDS011;6115;49.296;10.602;2022-09-12T16:02:48;3.20;;;2.90;;
974;SDS011;6115;49.296;10.602;2022-09-12T16:07:50;2.97;;;2.77;;
974;SDS011;6115;49.296;10.602;2022-09-12T16:12:53;2.87;;;2.67;;
974;SDS011;6115;49.296;10.602;2022-09-12T16:17:53;3.20;;;3.00;;
974;SDS011;6115;49.296;10.602;2022-09-12T16:22:54;5.83;;;3.20;;
974;SDS011;6115;49.296;10.602;2022-09-12T16:27:54;3.20;;;3.00;;
974;SDS011;6115;49.296;10.602;2022-09-12T16:32:55;3.40;;;3.20;;
974;SDS011;6115;49.296;10.602;2022-09-12T16:37:56;3.20;;;2.90;;
974;SDS011;6115;49.296;10.602;2022-09-12T16:42:56;3.30;;;2.93;;
974;SDS011;6115;49.296;10.602;2022-09-12T16:47:57;3.53;;;3.23;;
974;SDS011;6115;49.296;10.602;2022-09-12T16:52:57;3.60;;;3.30;;
974;SDS011;6115;49.296;10.602;2022-09-12T16:57:58;3.50;;;3.27;;
974;SDS011;6115;49.296;10.602;2022-09-12T17:02:59;3.13;;;2.93;;
974;SDS011;6115;49.296;10.602;2022-09-12T17:07:59;4.03;;;3.63;;
974;SDS011;6115;49.296;10.602;2022-09-12T17:13:00;3.70;;;3.40;;
974;SDS011;6115;49.296;10.602;2022-09-12T17:18:01;3.83;;;3.30;;
974;SDS011;6115;49.296;10.602;2022-09-12T17:23:02;4.90;;;3.80;;
974;SDS011;6115;49.296;10.602;2022-09-12T17:28:02;5.23;;;4.20;;
974;SDS011;6115;49.296;10.602;2022-09-12T17:33:04;4.70;;;4.27;;
974;SDS011;6115;49.296;10.602;2022-09-12T17:38:05;7.27;;;4.77;;
974;SDS011;6115;49.296;10.602;2022-09-12T17:43:06;5.17;;;4.67;;
974;SDS011;6115;49.296;10.602;2022-09-12T17:48:06;6.80;;;4.70;;
974;SDS011;6115;49.296;10.602;2022-09-12T17:53:10;5.70;;;4.37;;
974;SDS011;6115;49.296;10.602;2022-09-12T17:58:12;5.20;;;4.70;;
974;SDS011;6115;49.296;10.602;2022-09-12T18:03:13;4.40;;;4.10;;
974;SDS011;6115;49.296;10.602;2022-09-12T18:08:14;4.77;;;4.37;;
974;SDS011;6115;49.296;10.602;2022-09-12T18:13:14;5.63;;;5.07;;
974;SDS011;6115;49.296;10.602;2022-09-12T18:18:15;5.07;;;4.57;;
974;SDS011;6115;49.296;10.602;2022-09-12T18:23:16;5.20;;;4.80;;
974;SDS011;6115;49.296;10.602;2022-09-12T18:28:16;5.67;;;4.60;;
974;SDS011;6115;49.296;10.602;2022-09-12T18:33:18;6.40;;;5.20;;
974;SDS011;6115;49.296;10.602;2022-09-12T18:38:19;5.73;;;4.97;;
974;SDS011;6115;49.296;10.602;2022-09-12T18:43:19;5.40;;;4.90;;
974;SDS011;6115;49.296;10.602;2022-09-12T18:48:20;6.40;;;5.00;;
974;SDS011;6115;49.296;10.602;2022-09-12T18:53:20;7.03;;;4.87;;
974;SDS011;6115;49.296;10.602;2022-09-12T18:58:21;7.13;;;5.47;;
974;SDS011;6115;49.296;10.602;2022-09-12T19:03:21;5.93;;;5.43;;
974;SDS011;6115;49.296;10.602;2022-09-12T19:08:22;8.80;;;5.77;;
974;SDS011;6115;49.296;10.602;2022-09-12T19:13:22;6.77;;;5.93;;
974;SDS011;6115;49.296;10.602;2022-09-12T19:18:23;8.80;;;5.60;;
974;SDS011;6115;49.296;10.602;2022-09-12T19:23:24;7.50;;;6.20;;
974;SDS011;6115;49.296;10.602;2022-09-12T19:28:25;6.93;;;5.70;;
974;SDS011;6115;49.296;10.602;2022-09-12T19:33:26;10.23;;;6.00;;
974;SDS011;6115;49.296;10.602;2022-09-12T19:38:27;8.37;;;6.47;;
974;SDS011;6115;49.296;10.602;2022-09-12T19:43:28;8.47;;;6.50;;
974;SDS011;6115;49.296;10.602;2022-09-12T19:48:29;9.37;;;7.20;;
974;SDS011;6115;49.296;10.602;2022-09-12T19:53:30;7.00;;;6.30;;
974;SDS011;6115;49.296;10.602;2022-09-12T19:58:34;8.63;;;6.80;;
974;SDS011;6115;49.296;10.602;2022-09-12T20:03:36;6.87;;;6.27;;
974;SDS011;6115;49.296;10.602;2022-09-12T20:08:37;7.97;;;6.50;;
974;SDS011;6115;49.296;10.602;2022-09-12T20:13:41;8.77;;;6.53;;
974;SDS011;6115;49.296;10.602;2022-09-12T20:18:42;7.63;;;6.83;;
974;SDS011;6115;49.296;10.602;2022-09-12T20:23:44;7.10;;;6.50;;
974;SDS011;6115;49.296;10.602;2022-09-12T20:28:45;8.30;;;6.70;;
974;SDS011;6115;49.296;10.602;2022-09-12T20:33:46;8.13;;;6.67;;
974;SDS011;6115;49.296;10.602;2022-09-12T20:38:47;7.30;;;6.60;;
974;SDS011;6115;49.296;10.602;2022-09-12T20:43:53;17.60;;;7.50;;
974;SDS011;6115;49.296;10.602;2022-09-12T20:48:54;8.47;;;7.57;;
974;SDS011;6115;49.296;10.602;2022-09-12T20:53:55;7.87;;;7.07;;
974;SDS011;6115;49.296;10.602;2022-09-12T20:58:57;10.13;;;6.40;;
974;SDS011;6115;49.296;10.602;2022-09-12T21:03:59;9.03;;;6.80;;
974;SDS011;6115;49.296;10.602;2022-09-12T21:09:00;7.87;;;7.00;;
974;SDS011;6115;49.296;10.602;2022-09-12T21:14:00;10.33;;;7.30;;
974;SDS011;6115;49.296;10.602;2022-09-12T21:19:01;8.43;;;7.57;;
974;SDS011;6115;49.296;10.602;2022-09-12T21:24:02;11.77;;;7.70;;
974;SDS011;6115;49.296;10.602;2022-09-12T21:29:03;8.30;;;7.50;;
974;SDS011;6115;49.296;10.602;2022-09-12T21:34:03;9.47;;;7.83;;
974;SDS011;6115;49.296;10.602;2022-09-12T21:39:04;9.07;;;8.17;;
974;SDS011;6115;49.296;10.602;2022-09-12T21:44:04;8.43;;;7.63;;
974;SDS011;6115;49.296;10.602;2022-09-12T21:49:06;9.67;;;7.20;;
974;SDS011;6115;49.296;10.602;2022-09-12T21:54:06;10.97;;;8.53;;
974;SDS011;6115;49.296;10.602;2022-09-12T21:59:07;9.90;;;8.77;;
974;SDS011;6115;49.296;10.602;2022-09-12T22:04:08;10.57;;;8.70;;
974;SDS011;6115;49.296;10.602;2022-09-12T22:09:09;9.90;;;7.93;;
974;SDS011;6115;49.296;10.602;2022-09-12T22:14:10;12.97;;;8.20;;
974;SDS011;6115;49.296;10.602;2022-09-12T22:19:10;11.27;;;8.00;;
974;SDS011;6115;49.296;10.602;2022-09-12T22:24:11;11.90;;;9.20;;
974;SDS011;6115;49.296;10.602;2022-09-12T22:29:27;9.17;;;8.07;;
974;SDS011;6115;49.296;10.602;2022-09-12T22:34:28;12.10;;;8.80;;
974;SDS011;6115;49.296;10.602;2022-09-12T22:39:29;10.77;;;9.07;;
974;SDS011;6115;49.296;10.602;2022-09-12T22:44:29;9.50;;;8.50;;
974;SDS011;6115;49.296;10.602;2022-09-12T22:49:30;10.50;;;8.77;;
974;SDS011;6115;49.296;10.602;2022-09-12T22:54:31;9.50;;;8.60;;
974;SDS011;6115;49.296;10.602;2022-09-12T22:59:31;11.30;;;8.07;;
974;SDS011;6115;49.296;10.602;2022-09-12T23:04:32;9.73;;;8.73;;
974;SDS011;6115;49.296;10.602;2022-09-12T23:09:32;12.50;;;7.57;;
974;SDS011;6115;49.296;10.602;2022-09-12T23:14:33;10.13;;;9.00;;
974;SDS011;6115;49.296;10.602;2022-09-12T23:19:34;10.47;;;8.43;;
974;SDS011;6115;49.296;10.602;2022-09-12T23:24:34;12.23;;;8.60;;
974;SDS011;6115;49.296;10.602;2022-09-12T23:29:36;11.10;;;8.37;;
974;SDS011;6115;49.296;10.602;2022-09-12T23:34:36;8.53;;;7.67;;
974;SDS011;6115;49.296;10.602;2022-09-12T23:39:37;9.50;;;8.50;;
974;SDS011;6115;49.296;10.602;2022-09-12T23:44:37;11.50;;;8.70;;
974;SDS011;6115;49.296;10.602;2022-09-12T23:49:38;9.50;;;7.90;;
974;SDS011;6115;49.296;10.602;2022-09-12T23:54:38;9.53;;;8.10;;
974;SDS011;6115;49.296;10.602;2022-09-12T23:59:39;11.03;;;9.20;;
